sensor_id;sensor_type;location;lat;lon;timestamp;temperature;humidity
70550;DHT22;58101;48.658;2.328;2022-09-09T00:02:23;16.00;99.90
70550;DHT22;58101;48.658;2.328;2022-09-09T00:05:00;16.00;99.90
70550;DHT22;58101;48.658;2.328;2022-09-09T00:15:38;15.90;99.90
70550;DHT22;58101;48.658;2.328;2022-09-09T00:21:05;15.90;99.90
70550;DHT22;58101;48.658;2.328;2022-09-09T00:23:38;15.80;99.90
70550;DHT22;58101;48.658;2.328;2022-09-09T00:28:52;15.80;99.90
70550;DHT22;58101;48.658;2.328;2022-09-09T00:31:27;15.80;99.90
70550;DHT22;58101;48.658;2.328;2022-09-09T00:33:56;15.80;99.90
70550;DHT22;58101;48.658;2.328;2022-09-09T00:36:26;15.80;99.90
70550;DHT22;58101;48.658;2.328;2022-09-09T00:38:59;15.80;99.90
70550;DHT22;58101;48.658;2.328;2022-09-09T00:41:48;15.70;99.90
70550;DHT22;58101;48.658;2.328;2022-09-09T00:44:32;15.70;99.90
70550;DHT22;58101;48.658;2.328;2022-09-09T00:47:29;15.70;99.90
70550;DHT22;58101;48.658;2.328;2022-09-09T00:50:00;15.70;99.90
70550;DHT22;58101;48.658;2.328;2022-09-09T00:52:40;15.70;99.90
70550;DHT22;58101;48.658;2.328;2022-09-09T00:55:19;15.60;99.90
70550;DHT22;58101;48.658;2.328;2022-09-09T00:57:51;15.60;99.90
70550;DHT22;58101;48.658;2.328;2022-09-09T01:05:46;15.60;99.90
70550;DHT22;58101;48.658;2.328;2022-09-09T01:11:00;15.60;99.90
70550;DHT22;58101;48.658;2.328;2022-09-09T01:13:33;15.60;99.90
70550;DHT22;58101;48.658;2.328;2022-09-09T01:16:01;15.60;99.90
70550;DHT22;58101;48.658;2.328;2022-09-09T01:18:33;15.60;99.90
70550;DHT22;58101;48.658;2.328;2022-09-09T01:24:05;15.60;99.90
70550;DHT22;58101;48.658;2.328;2022-09-09T01:26:37;15.60;99.90
70550;DHT22;58101;48.658;2.328;2022-09-09T01:29:11;15.50;99.90
70550;DHT22;58101;48.658;2.328;2022-09-09T01:34:22;15.50;99.90
70550;DHT22;58101;48.658;2.328;2022-09-09T01:36:59;15.60;99.90
70550;DHT22;58101;48.658;2.328;2022-09-09T01:39:26;15.60;99.90
70550;DHT22;58101;48.658;2.328;2022-09-09T01:41:53;15.60;99.90
70550;DHT22;58101;48.658;2.328;2022-09-09T01:44:20;15.60;99.90
70550;DHT22;58101;48.658;2.328;2022-09-09T01:46:47;15.60;99.90
70550;DHT22;58101;48.658;2.328;2022-09-09T01:49:13;15.60;99.90
70550;DHT22;58101;48.658;2.328;2022-09-09T01:51:46;15.60;99.90
70550;DHT22;58101;48.658;2.328;2022-09-09T01:54:12;15.60;99.90
70550;DHT22;58101;48.658;2.328;2022-09-09T01:59:48;15.50;99.90
70550;DHT22;58101;48.658;2.328;2022-09-09T02:08:00;15.50;99.90
70550;DHT22;58101;48.658;2.328;2022-09-09T02:10:30;15.50;99.90
70550;DHT22;58101;48.658;2.328;2022-09-09T02:13:09;15.40;99.90
70550;DHT22;58101;48.658;2.328;2022-09-09T02:21:21;15.40;99.90
70550;DHT22;58101;48.658;2.328;2022-09-09T02:23:47;15.50;99.90
70550;DHT22;58101;48.658;2.328;2022-09-09T02:26:17;15.40;99.90
70550;DHT22;58101;48.658;2.328;2022-09-09T02:28:49;15.40;99.90
70550;DHT22;58101;48.658;2.328;2022-09-09T02:31:17;15.40;99.90
70550;DHT22;58101;48.658;2.328;2022-09-09T02:33:47;15.30;99.90
70550;DHT22;58101;48.658;2.328;2022-09-09T02:36:16;15.60;99.90
70550;DHT22;58101;48.658;2.328;2022-09-09T02:38:45;15.50;99.90
70550;DHT22;58101;48.658;2.328;2022-09-09T02:41:11;15.40;99.90
70550;DHT22;58101;48.658;2.328;2022-09-09T02:43:36;15.40;99.90
70550;DHT22;58101;48.658;2.328;2022-09-09T02:46:31;15.40;99.90
70550;DHT22;58101;48.658;2.328;2022-09-09T02:54:28;15.30;99.90
70550;DHT22;58101;48.658;2.328;2022-09-09T02:57:06;15.30;99.90
70550;DHT22;58101;48.658;2.328;2022-09-09T02:59:33;15.30;99.90
70550;DHT22;58101;48.658;2.328;2022-09-09T03:01:59;15.30;99.90
70550;DHT22;58101;48.658;2.328;2022-09-09T03:04:25;15.30;99.90
70550;DHT22;58101;48.658;2.328;2022-09-09T03:06:50;15.30;99.90
70550;DHT22;58101;48.658;2.328;2022-09-09T03:09:16;15.30;99.90
70550;DHT22;58101;48.658;2.328;2022-09-09T03:11:42;15.30;99.90
70550;DHT22;58101;48.658;2.328;2022-09-09T03:14:08;15.30;99.90
70550;DHT22;58101;48.658;2.328;2022-09-09T03:16:34;15.30;99.90
70550;DHT22;58101;48.658;2.328;2022-09-09T03:19:00;15.40;99.90
70550;DHT22;58101;48.658;2.328;2022-09-09T03:21:26;15.40;99.90
70550;DHT22;58101;48.658;2.328;2022-09-09T03:23:51;15.40;99.90
70550;DHT22;58101;48.658;2.328;2022-09-09T03:26:17;15.40;99.90
70550;DHT22;58101;48.658;2.328;2022-09-09T03:28:43;15.40;99.90
70550;DHT22;58101;48.658;2.328;2022-09-09T03:31:10;15.40;99.90
70550;DHT22;58101;48.658;2.328;2022-09-09T03:33:37;15.40;99.90
70550;DHT22;58101;48.658;2.328;2022-09-09T03:36:03;15.50;99.90
70550;DHT22;58101;48.658;2.328;2022-09-09T03:38:29;15.40;99.90
70550;DHT22;58101;48.658;2.328;2022-09-09T03:40:56;15.40;99.90
70550;DHT22;58101;48.658;2.328;2022-09-09T03:43:26;15.40;99.90
70550;DHT22;58101;48.658;2.328;2022-09-09T03:45:53;15.40;99.90
70550;DHT22;58101;48.658;2.328;2022-09-09T03:48:22;15.40;99.90
70550;DHT22;58101;48.658;2.328;2022-09-09T03:50:50;15.40;99.90
70550;DHT22;58101;48.658;2.328;2022-09-09T03:53:17;15.40;99.90
70550;DHT22;58101;48.658;2.328;2022-09-09T03:55:49;15.40;99.90
70550;DHT22;58101;48.658;2.328;2022-09-09T03:58:16;15.40;99.90
70550;DHT22;58101;48.658;2.328;2022-09-09T04:00:52;15.40;99.90
70550;DHT22;58101;48.658;2.328;2022-09-09T04:03:18;15.40;99.90
70550;DHT22;58101;48.658;2.328;2022-09-09T04:05:51;15.40;99.90
70550;DHT22;58101;48.658;2.328;2022-09-09T04:08:16;15.30;99.90
70550;DHT22;58101;48.658;2.328;2022-09-09T04:10:45;15.30;99.90
70550;DHT22;58101;48.658;2.328;2022-09-09T04:13:12;15.30;99.90
70550;DHT22;58101;48.658;2.328;2022-09-09T04:15:39;15.30;99.90
70550;DHT22;58101;48.658;2.328;2022-09-09T04:18:05;15.30;99.90
70550;DHT22;58101;48.658;2.328;2022-09-09T04:20:31;15.30;99.90
70550;DHT22;58101;48.658;2.328;2022-09-09T04:22:58;15.30;99.90
70550;DHT22;58101;48.658;2.328;2022-09-09T04:25:23;15.30;99.90
70550;DHT22;58101;48.658;2.328;2022-09-09T04:27:54;15.30;99.90
70550;DHT22;58101;48.658;2.328;2022-09-09T04:30:20;15.30;99.90
70550;DHT22;58101;48.658;2.328;2022-09-09T04:32:46;15.30;99.90
70550;DHT22;58101;48.658;2.328;2022-09-09T04:35:12;15.30;99.90
70550;DHT22;58101;48.658;2.328;2022-09-09T04:37:38;15.30;99.90
70550;DHT22;58101;48.658;2.328;2022-09-09T04:40:04;15.30;99.90
70550;DHT22;58101;48.658;2.328;2022-09-09T04:42:30;15.30;99.90
70550;DHT22;58101;48.658;2.328;2022-09-09T04:44:55;15.30;99.90
70550;DHT22;58101;48.658;2.328;2022-09-09T04:47:21;15.30;99.90
70550;DHT22;58101;48.658;2.328;2022-09-09T04:49:46;15.30;99.90
70550;DHT22;58101;48.658;2.328;2022-09-09T04:52:13;15.30;99.90
70550;DHT22;58101;48.658;2.328;2022-09-09T04:54:38;15.40;99.90
70550;DHT22;58101;48.658;2.328;2022-09-09T04:57:04;15.40;99.90
70550;DHT22;58101;48.658;2.328;2022-09-09T04:59:30;15.40;99.90
70550;DHT22;58101;48.658;2.328;2022-09-09T05:01:56;15.40;99.90
70550;DHT22;58101;48.658;2.328;2022-09-09T05:04:22;15.40;99.90
70550;DHT22;58101;48.658;2.328;2022-09-09T05:06:47;15.40;99.90
70550;DHT22;58101;48.658;2.328;2022-09-09T05:09:13;15.50;99.90
70550;DHT22;58101;48.658;2.328;2022-09-09T05:11:39;15.50;99.90
70550;DHT22;58101;48.658;2.328;2022-09-09T05:14:05;15.50;99.90
70550;DHT22;58101;48.658;2.328;2022-09-09T05:16:31;15.60;99.90
70550;DHT22;58101;48.658;2.328;2022-09-09T05:18:56;15.60;99.90
70550;DHT22;58101;48.658;2.328;2022-09-09T05:21:23;15.60;99.90
70550;DHT22;58101;48.658;2.328;2022-09-09T05:23:52;15.60;99.90
70550;DHT22;58101;48.658;2.328;2022-09-09T05:26:19;15.60;99.90
70550;DHT22;58101;48.658;2.328;2022-09-09T05:28:46;15.50;99.90
70550;DHT22;58101;48.658;2.328;2022-09-09T05:31:13;15.50;99.90
70550;DHT22;58101;48.658;2.328;2022-09-09T05:33:43;15.40;99.90
70550;DHT22;58101;48.658;2.328;2022-09-09T05:36:16;15.40;99.90
70550;DHT22;58101;48.658;2.328;2022-09-09T05:38:42;15.40;99.90
70550;DHT22;58101;48.658;2.328;2022-09-09T05:41:21;15.40;99.90
70550;DHT22;58101;48.658;2.328;2022-09-09T05:43:48;15.40;99.90
70550;DHT22;58101;48.658;2.328;2022-09-09T05:46:16;15.50;99.90
70550;DHT22;58101;48.658;2.328;2022-09-09T05:48:44;15.50;99.90
70550;DHT22;58101;48.658;2.328;2022-09-09T05:51:26;15.50;99.90
70550;DHT22;58101;48.658;2.328;2022-09-09T05:53:53;15.60;99.90
70550;DHT22;58101;48.658;2.328;2022-09-09T05:56:25;15.60;99.90
70550;DHT22;58101;48.658;2.328;2022-09-09T05:58:52;15.60;99.90
70550;DHT22;58101;48.658;2.328;2022-09-09T06:01:26;15.60;99.90
70550;DHT22;58101;48.658;2.328;2022-09-09T06:03:52;15.60;99.90
70550;DHT22;58101;48.658;2.328;2022-09-09T06:06:23;15.60;99.90
70550;DHT22;58101;48.658;2.328;2022-09-09T06:08:54;15.70;99.90
70550;DHT22;58101;48.658;2.328;2022-09-09T06:11:22;15.70;99.90
70550;DHT22;58101;48.658;2.328;2022-09-09T06:13:48;15.60;99.90
70550;DHT22;58101;48.658;2.328;2022-09-09T06:16:18;15.80;99.90
70550;DHT22;58101;48.658;2.328;2022-09-09T06:18:44;15.80;99.90
70550;DHT22;58101;48.658;2.328;2022-09-09T06:21:19;15.80;99.90
70550;DHT22;58101;48.658;2.328;2022-09-09T06:23:46;15.90;99.90
70550;DHT22;58101;48.658;2.328;2022-09-09T06:26:18;15.90;99.90
70550;DHT22;58101;48.658;2.328;2022-09-09T06:28:45;16.00;99.90
70550;DHT22;58101;48.658;2.328;2022-09-09T06:31:15;16.00;99.90
70550;DHT22;58101;48.658;2.328;2022-09-09T06:33:47;16.10;99.90
70550;DHT22;58101;48.658;2.328;2022-09-09T06:36:15;16.10;99.90
70550;DHT22;58101;48.658;2.328;2022-09-09T06:38:42;16.20;99.90
70550;DHT22;58101;48.658;2.328;2022-09-09T06:41:09;16.20;99.90
70550;DHT22;58101;48.658;2.328;2022-09-09T06:43:36;16.20;99.90
70550;DHT22;58101;48.658;2.328;2022-09-09T06:46:21;16.20;99.90
70550;DHT22;58101;48.658;2.328;2022-09-09T06:48:47;16.20;99.90
70550;DHT22;58101;48.658;2.328;2022-09-09T06:51:18;16.30;99.90
70550;DHT22;58101;48.658;2.328;2022-09-09T06:53:46;16.40;99.90
70550;DHT22;58101;48.658;2.328;2022-09-09T06:56:19;16.50;99.90
70550;DHT22;58101;48.658;2.328;2022-09-09T06:58:47;16.60;99.90
70550;DHT22;58101;48.658;2.328;2022-09-09T07:01:21;16.60;99.90
70550;DHT22;58101;48.658;2.328;2022-09-09T07:03:50;16.70;99.90
70550;DHT22;58101;48.658;2.328;2022-09-09T07:06:21;16.80;99.90
70550;DHT22;58101;48.658;2.328;2022-09-09T07:08:53;16.80;99.90
70550;DHT22;58101;48.658;2.328;2022-09-09T07:11:20;16.80;99.90
70550;DHT22;58101;48.658;2.328;2022-09-09T07:13:47;16.80;99.90
70550;DHT22;58101;48.658;2.328;2022-09-09T07:16:17;16.90;99.90
70550;DHT22;58101;48.658;2.328;2022-09-09T07:18:44;17.00;99.90
70550;DHT22;58101;48.658;2.328;2022-09-09T07:21:12;16.90;99.90
70550;DHT22;58101;48.658;2.328;2022-09-09T07:23:38;17.00;99.90
70550;DHT22;58101;48.658;2.328;2022-09-09T07:26:16;17.10;99.70
70550;DHT22;58101;48.658;2.328;2022-09-09T07:28:42;17.10;99.20
70550;DHT22;58101;48.658;2.328;2022-09-09T07:31:14;17.30;98.50
70550;DHT22;58101;48.658;2.328;2022-09-09T07:33:43;17.30;98.10
70550;DHT22;58101;48.658;2.328;2022-09-09T07:36:18;17.40;98.00
70550;DHT22;58101;48.658;2.328;2022-09-09T07:38:47;17.50;97.40
70550;DHT22;58101;48.658;2.328;2022-09-09T07:41:43;17.60;96.30
70550;DHT22;58101;48.658;2.328;2022-09-09T07:44:12;17.60;96.70
70550;DHT22;58101;48.658;2.328;2022-09-09T07:46:39;17.80;96.20
70550;DHT22;58101;48.658;2.328;2022-09-09T07:49:05;17.90;94.00
70550;DHT22;58101;48.658;2.328;2022-09-09T07:51:33;17.80;94.10
70550;DHT22;58101;48.658;2.328;2022-09-09T07:54:01;17.80;94.00
70550;DHT22;58101;48.658;2.328;2022-09-09T07:56:30;17.90;93.60
70550;DHT22;58101;48.658;2.328;2022-09-09T07:58:57;17.90;93.70
70550;DHT22;58101;48.658;2.328;2022-09-09T08:01:27;17.90;93.60
70550;DHT22;58101;48.658;2.328;2022-09-09T08:06:25;18.20;92.30
70550;DHT22;58101;48.658;2.328;2022-09-09T08:08:52;18.20;91.80
70550;DHT22;58101;48.658;2.328;2022-09-09T08:11:18;18.30;91.80
70550;DHT22;58101;48.658;2.328;2022-09-09T08:13:44;18.30;91.80
70550;DHT22;58101;48.658;2.328;2022-09-09T08:16:16;18.30;91.60
70550;DHT22;58101;48.658;2.328;2022-09-09T08:18:42;18.30;90.70
70550;DHT22;58101;48.658;2.328;2022-09-09T08:21:09;18.20;90.70
70550;DHT22;58101;48.658;2.328;2022-09-09T08:23:38;18.10;91.40
70550;DHT22;58101;48.658;2.328;2022-09-09T08:26:15;18.10;91.60
70550;DHT22;58101;48.658;2.328;2022-09-09T08:28:42;18.00;91.80
70550;DHT22;58101;48.658;2.328;2022-09-09T08:31:11;18.10;91.40
70550;DHT22;58101;48.658;2.328;2022-09-09T08:33:38;18.10;91.70
70550;DHT22;58101;48.658;2.328;2022-09-09T08:36:06;18.10;91.80
70550;DHT22;58101;48.658;2.328;2022-09-09T08:38:33;18.20;91.10
70550;DHT22;58101;48.658;2.328;2022-09-09T08:41:12;18.20;91.40
70550;DHT22;58101;48.658;2.328;2022-09-09T08:43:44;18.30;90.80
70550;DHT22;58101;48.658;2.328;2022-09-09T08:51:59;19.80;84.40
70550;DHT22;58101;48.658;2.328;2022-09-09T08:54:33;21.10;79.60
70550;DHT22;58101;48.658;2.328;2022-09-09T08:57:00;22.70;73.10
70550;DHT22;58101;48.658;2.328;2022-09-09T08:59:25;23.40;66.10
70550;DHT22;58101;48.658;2.328;2022-09-09T09:02:04;23.20;65.20
70550;DHT22;58101;48.658;2.328;2022-09-09T09:12:47;20.70;73.90
70550;DHT22;58101;48.658;2.328;2022-09-09T09:15:19;20.30;77.30
70550;DHT22;58101;48.658;2.328;2022-09-09T09:17:46;19.60;79.90
70550;DHT22;58101;48.658;2.328;2022-09-09T09:20:15;19.20;81.50
70550;DHT22;58101;48.658;2.328;2022-09-09T09:22:50;18.90;84.40
70550;DHT22;58101;48.658;2.328;2022-09-09T09:25:23;18.70;86.00
70550;DHT22;58101;48.658;2.328;2022-09-09T09:30:26;18.50;87.70
70550;DHT22;58101;48.658;2.328;2022-09-09T09:35:23;18.80;88.00
70550;DHT22;58101;48.658;2.328;2022-09-09T09:37:49;19.20;85.30
70550;DHT22;58101;48.658;2.328;2022-09-09T09:40:17;20.20;81.00
70550;DHT22;58101;48.658;2.328;2022-09-09T09:42:54;21.50;75.20
70550;DHT22;58101;48.658;2.328;2022-09-09T09:45:35;22.90;69.30
70550;DHT22;58101;48.658;2.328;2022-09-09T09:48:08;24.20;63.00
70550;DHT22;58101;48.658;2.328;2022-09-09T09:50:35;24.00;60.40
70550;DHT22;58101;48.658;2.328;2022-09-09T09:53:03;23.30;61.10
70550;DHT22;58101;48.658;2.328;2022-09-09T09:55:32;22.20;63.90
70550;DHT22;58101;48.658;2.328;2022-09-09T09:58:05;21.20;68.70
70550;DHT22;58101;48.658;2.328;2022-09-09T10:00:31;20.50;73.10
70550;DHT22;58101;48.658;2.328;2022-09-09T10:02:59;20.00;77.50
70550;DHT22;58101;48.658;2.328;2022-09-09T10:05:28;19.70;79.60
70550;DHT22;58101;48.658;2.328;2022-09-09T10:08:20;19.40;82.20
70550;DHT22;58101;48.658;2.328;2022-09-09T10:11:16;19.40;82.90
70550;DHT22;58101;48.658;2.328;2022-09-09T10:14:08;19.70;82.50
70550;DHT22;58101;48.658;2.328;2022-09-09T10:19:33;20.20;77.40
70550;DHT22;58101;48.658;2.328;2022-09-09T10:22:25;20.50;75.90
70550;DHT22;58101;48.658;2.328;2022-09-09T10:33:16;20.50;75.00
70550;DHT22;58101;48.658;2.328;2022-09-09T10:38:33;20.50;72.80
70550;DHT22;58101;48.658;2.328;2022-09-09T10:44:17;20.10;78.80
70550;DHT22;58101;48.658;2.328;2022-09-09T10:52:20;19.70;79.90
70550;DHT22;58101;48.658;2.328;2022-09-09T10:57:36;20.20;77.50
70550;DHT22;58101;48.658;2.328;2022-09-09T11:00:53;20.30;76.60
70550;DHT22;58101;48.658;2.328;2022-09-09T11:02:56;20.40;75.60
70550;DHT22;58101;48.658;2.328;2022-09-09T11:05:31;20.80;75.40
70550;DHT22;58101;48.658;2.328;2022-09-09T11:08:26;21.70;72.00
70550;DHT22;58101;48.658;2.328;2022-09-09T11:13:25;23.30;64.60
70550;DHT22;58101;48.658;2.328;2022-09-09T11:15:57;23.80;61.90
70550;DHT22;58101;48.658;2.328;2022-09-09T11:18:25;23.20;61.30
70550;DHT22;58101;48.658;2.328;2022-09-09T11:20:59;23.80;63.90
70550;DHT22;58101;48.658;2.328;2022-09-09T11:23:39;23.90;60.30
70550;DHT22;58101;48.658;2.328;2022-09-09T11:26:13;24.30;59.50
70550;DHT22;58101;48.658;2.328;2022-09-09T11:29:02;24.80;59.60
70550;DHT22;58101;48.658;2.328;2022-09-09T11:31:48;25.00;56.60
70550;DHT22;58101;48.658;2.328;2022-09-09T11:37:36;25.20;55.00
70550;DHT22;58101;48.658;2.328;2022-09-09T11:40:24;24.40;54.90
70550;DHT22;58101;48.658;2.328;2022-09-09T11:43:09;23.90;56.60
70550;DHT22;58101;48.658;2.328;2022-09-09T11:45:38;23.50;58.30
70550;DHT22;58101;48.658;2.328;2022-09-09T11:48:05;23.00;59.70
70550;DHT22;58101;48.658;2.328;2022-09-09T11:50:36;22.80;60.40
70550;DHT22;58101;48.658;2.328;2022-09-09T11:55:34;22.60;61.10
70550;DHT22;58101;48.658;2.328;2022-09-09T12:00:42;22.50;61.90
70550;DHT22;58101;48.658;2.328;2022-09-09T12:08:57;22.00;61.70
70550;DHT22;58101;48.658;2.328;2022-09-09T12:11:27;21.80;62.40
70550;DHT22;58101;48.658;2.328;2022-09-09T12:13:56;21.60;65.60
70550;DHT22;58101;48.658;2.328;2022-09-09T12:16:38;21.60;64.50
70550;DHT22;58101;48.658;2.328;2022-09-09T12:19:20;21.70;63.50
70550;DHT22;58101;48.658;2.328;2022-09-09T12:22:07;21.90;62.50
70550;DHT22;58101;48.658;2.328;2022-09-09T12:24:59;21.90;62.50
70550;DHT22;58101;48.658;2.328;2022-09-09T12:27:36;21.80;61.90
70550;DHT22;58101;48.658;2.328;2022-09-09T12:30:11;21.80;63.40
70550;DHT22;58101;48.658;2.328;2022-09-09T12:32:40;21.80;62.70
70550;DHT22;58101;48.658;2.328;2022-09-09T12:35:21;21.70;62.70
70550;DHT22;58101;48.658;2.328;2022-09-09T12:37:52;21.60;62.50
70550;DHT22;58101;48.658;2.328;2022-09-09T12:40:22;21.50;63.40
70550;DHT22;58101;48.658;2.328;2022-09-09T12:42:48;21.50;63.90
70550;DHT22;58101;48.658;2.328;2022-09-09T12:45:22;21.60;64.90
70550;DHT22;58101;48.658;2.328;2022-09-09T12:50:33;22.00;62.30
70550;DHT22;58101;48.658;2.328;2022-09-09T12:53:31;22.00;62.00
70550;DHT22;58101;48.658;2.328;2022-09-09T12:56:02;22.20;61.80
70550;DHT22;58101;48.658;2.328;2022-09-09T12:58:29;22.40;61.30
70550;DHT22;58101;48.658;2.328;2022-09-09T13:01:03;22.30;60.20
70550;DHT22;58101;48.658;2.328;2022-09-09T13:03:31;22.10;61.20
70550;DHT22;58101;48.658;2.328;2022-09-09T13:06:21;21.70;61.80
70550;DHT22;58101;48.658;2.328;2022-09-09T13:08:49;21.50;63.10
70550;DHT22;58101;48.658;2.328;2022-09-09T13:11:36;21.30;63.30
70550;DHT22;58101;48.658;2.328;2022-09-09T13:14:26;21.20;63.40
70550;DHT22;58101;48.658;2.328;2022-09-09T13:17:00;21.20;63.90
70550;DHT22;58101;48.658;2.328;2022-09-09T13:19:37;21.20;63.50
70550;DHT22;58101;48.658;2.328;2022-09-09T13:22:21;21.20;63.90
70550;DHT22;58101;48.658;2.328;2022-09-09T13:24:47;21.10;65.80
70550;DHT22;58101;48.658;2.328;2022-09-09T13:27:34;20.90;70.30
70550;DHT22;58101;48.658;2.328;2022-09-09T13:30:20;20.60;75.60
70550;DHT22;58101;48.658;2.328;2022-09-09T13:32:59;20.40;85.60
70550;DHT22;58101;48.658;2.328;2022-09-09T13:35:26;20.20;89.50
70550;DHT22;58101;48.658;2.328;2022-09-09T13:37:52;20.00;90.50
70550;DHT22;58101;48.658;2.328;2022-09-09T13:40:21;19.90;93.60
70550;DHT22;58101;48.658;2.328;2022-09-09T13:42:50;19.90;92.90
70550;DHT22;58101;48.658;2.328;2022-09-09T13:45:22;20.20;94.70
70550;DHT22;58101;48.658;2.328;2022-09-09T13:47:49;20.50;93.80
70550;DHT22;58101;48.658;2.328;2022-09-09T13:50:28;20.70;90.70
70550;DHT22;58101;48.658;2.328;2022-09-09T13:52:58;20.60;90.60
70550;DHT22;58101;48.658;2.328;2022-09-09T13:58:04;20.50;90.60
70550;DHT22;58101;48.658;2.328;2022-09-09T14:00:31;20.60;91.30
70550;DHT22;58101;48.658;2.328;2022-09-09T14:02:58;20.60;90.10
70550;DHT22;58101;48.658;2.328;2022-09-09T14:05:25;20.50;88.40
70550;DHT22;58101;48.658;2.328;2022-09-09T14:07:51;20.50;90.40
70550;DHT22;58101;48.658;2.328;2022-09-09T14:10:17;20.40;91.40
70550;DHT22;58101;48.658;2.328;2022-09-09T14:12:42;20.40;93.00
70550;DHT22;58101;48.658;2.328;2022-09-09T14:15:10;20.40;94.10
70550;DHT22;58101;48.658;2.328;2022-09-09T14:17:36;20.70;94.20
70550;DHT22;58101;48.658;2.328;2022-09-09T14:20:07;20.90;92.50
70550;DHT22;58101;48.658;2.328;2022-09-09T14:22:35;21.00;92.60
70550;DHT22;58101;48.658;2.328;2022-09-09T14:25:02;21.00;90.40
70550;DHT22;58101;48.658;2.328;2022-09-09T14:27:27;20.90;90.90
70550;DHT22;58101;48.658;2.328;2022-09-09T14:29:54;20.70;88.60
70550;DHT22;58101;48.658;2.328;2022-09-09T14:32:20;20.60;90.90
70550;DHT22;58101;48.658;2.328;2022-09-09T14:34:52;20.50;88.50
70550;DHT22;58101;48.658;2.328;2022-09-09T14:37:27;20.30;88.70
70550;DHT22;58101;48.658;2.328;2022-09-09T14:39:59;20.20;87.60
70550;DHT22;58101;48.658;2.328;2022-09-09T14:42:27;20.10;89.70
70550;DHT22;58101;48.658;2.328;2022-09-09T14:44:55;20.10;89.50
70550;DHT22;58101;48.658;2.328;2022-09-09T14:47:21;19.80;90.10
70550;DHT22;58101;48.658;2.328;2022-09-09T14:49:47;19.50;90.50
70550;DHT22;58101;48.658;2.328;2022-09-09T14:52:15;19.30;90.90
70550;DHT22;58101;48.658;2.328;2022-09-09T14:54:41;19.10;91.20
70550;DHT22;58101;48.658;2.328;2022-09-09T14:57:07;19.10;91.90
70550;DHT22;58101;48.658;2.328;2022-09-09T14:59:33;19.10;91.10
70550;DHT22;58101;48.658;2.328;2022-09-09T15:01:59;19.10;92.10
70550;DHT22;58101;48.658;2.328;2022-09-09T15:04:31;19.20;91.50
70550;DHT22;58101;48.658;2.328;2022-09-09T15:06:57;19.20;91.90
70550;DHT22;58101;48.658;2.328;2022-09-09T15:09:23;19.30;92.40
70550;DHT22;58101;48.658;2.328;2022-09-09T15:11:49;19.40;92.20
70550;DHT22;58101;48.658;2.328;2022-09-09T15:14:14;19.50;91.70
70550;DHT22;58101;48.658;2.328;2022-09-09T15:16:40;19.50;92.30
70550;DHT22;58101;48.658;2.328;2022-09-09T15:19:07;19.50;91.20
70550;DHT22;58101;48.658;2.328;2022-09-09T15:21:35;19.50;91.80
70550;DHT22;58101;48.658;2.328;2022-09-09T15:24:01;19.40;91.30
70550;DHT22;58101;48.658;2.328;2022-09-09T15:26:27;19.40;91.60
70550;DHT22;58101;48.658;2.328;2022-09-09T15:28:53;19.40;91.90
70550;DHT22;58101;48.658;2.328;2022-09-09T15:31:24;19.30;91.60
70550;DHT22;58101;48.658;2.328;2022-09-09T15:33:55;19.30;92.40
70550;DHT22;58101;48.658;2.328;2022-09-09T15:36:39;19.30;91.90
70550;DHT22;58101;48.658;2.328;2022-09-09T15:39:08;19.20;91.50
70550;DHT22;58101;48.658;2.328;2022-09-09T15:41:35;19.10;92.40
70550;DHT22;58101;48.658;2.328;2022-09-09T15:44:01;19.00;92.90
70550;DHT22;58101;48.658;2.328;2022-09-09T15:46:31;19.00;93.80
70550;DHT22;58101;48.658;2.328;2022-09-09T15:49:05;19.00;93.00
70550;DHT22;58101;48.658;2.328;2022-09-09T15:51:32;18.90;93.80
70550;DHT22;58101;48.658;2.328;2022-09-09T15:53:59;18.80;94.00
70550;DHT22;58101;48.658;2.328;2022-09-09T15:56:30;18.70;94.20
70550;DHT22;58101;48.658;2.328;2022-09-09T15:59:03;18.60;93.90
70550;DHT22;58101;48.658;2.328;2022-09-09T16:01:44;18.50;93.50
70550;DHT22;58101;48.658;2.328;2022-09-09T16:04:29;18.50;93.40
70550;DHT22;58101;48.658;2.328;2022-09-09T16:07:02;18.40;93.70
70550;DHT22;58101;48.658;2.328;2022-09-09T16:09:32;18.40;94.00
70550;DHT22;58101;48.658;2.328;2022-09-09T16:11:59;18.40;93.90
70550;DHT22;58101;48.658;2.328;2022-09-09T16:14:26;18.30;94.00
70550;DHT22;58101;48.658;2.328;2022-09-09T16:16:52;18.20;93.80
70550;DHT22;58101;48.658;2.328;2022-09-09T16:19:24;18.10;94.00
70550;DHT22;58101;48.658;2.328;2022-09-09T16:21:51;18.10;94.00
70550;DHT22;58101;48.658;2.328;2022-09-09T16:24:19;18.10;93.30
70550;DHT22;58101;48.658;2.328;2022-09-09T16:26:59;18.00;93.00
70550;DHT22;58101;48.658;2.328;2022-09-09T16:29:25;18.00;92.90
70550;DHT22;58101;48.658;2.328;2022-09-09T16:31:53;17.90;92.80
70550;DHT22;58101;48.658;2.328;2022-09-09T16:34:19;17.90;93.30
70550;DHT22;58101;48.658;2.328;2022-09-09T16:36:46;17.90;93.40
70550;DHT22;58101;48.658;2.328;2022-09-09T16:39:17;17.90;93.60
70550;DHT22;58101;48.658;2.328;2022-09-09T16:41:44;17.90;94.20
70550;DHT22;58101;48.658;2.328;2022-09-09T16:44:12;17.90;93.90
70550;DHT22;58101;48.658;2.328;2022-09-09T16:46:42;17.90;94.10
70550;DHT22;58101;48.658;2.328;2022-09-09T16:49:11;17.90;93.80
70550;DHT22;58101;48.658;2.328;2022-09-09T16:51:42;17.90;93.60
70550;DHT22;58101;48.658;2.328;2022-09-09T16:54:09;17.80;93.80
70550;DHT22;58101;48.658;2.328;2022-09-09T16:56:38;17.90;94.10
70550;DHT22;58101;48.658;2.328;2022-09-09T16:59:09;17.80;93.50
70550;DHT22;58101;48.658;2.328;2022-09-09T17:01:37;17.80;92.80
70550;DHT22;58101;48.658;2.328;2022-09-09T17:04:06;17.80;93.10
70550;DHT22;58101;48.658;2.328;2022-09-09T17:06:33;17.80;93.00
70550;DHT22;58101;48.658;2.328;2022-09-09T17:09:08;17.80;92.80
70550;DHT22;58101;48.658;2.328;2022-09-09T17:11:36;17.80;93.10
70550;DHT22;58101;48.658;2.328;2022-09-09T17:14:02;17.70;93.00
70550;DHT22;58101;48.658;2.328;2022-09-09T17:16:30;17.70;93.10
70550;DHT22;58101;48.658;2.328;2022-09-09T17:18:57;17.80;93.90
70550;DHT22;58101;48.658;2.328;2022-09-09T17:21:25;17.70;93.30
70550;DHT22;58101;48.658;2.328;2022-09-09T17:23:52;17.70;93.70
70550;DHT22;58101;48.658;2.328;2022-09-09T17:26:19;17.60;94.10
70550;DHT22;58101;48.658;2.328;2022-09-09T17:28:45;17.70;94.10
70550;DHT22;58101;48.658;2.328;2022-09-09T17:31:12;17.60;93.80
70550;DHT22;58101;48.658;2.328;2022-09-09T17:33:42;17.60;94.30
70550;DHT22;58101;48.658;2.328;2022-09-09T17:36:17;17.60;94.60
70550;DHT22;58101;48.658;2.328;2022-09-09T17:38:44;17.50;94.80
70550;DHT22;58101;48.658;2.328;2022-09-09T17:41:16;17.60;95.20
70550;DHT22;58101;48.658;2.328;2022-09-09T17:43:42;17.50;95.20
70550;DHT22;58101;48.658;2.328;2022-09-09T17:48:35;17.50;95.80
70550;DHT22;58101;48.658;2.328;2022-09-09T17:51:03;17.50;96.00